Time;durP1;ratioP1;P1;durP2;ratioP2;P2;SDS_P1;SDS_P2;PMS_P1;PMS_P2;Temp;Humidity;BMP_temperature;BMP_pressure;BME280_temperature;BME280_humidity;BME280_pressure;Samples;Min_cycle;Max_cycle;Signal;HPM_P1;HPM_P2
2023/06/27 00:01:22;;;;;;;2.33;1.03;;;16.60;99.90;;;;;;5055189;28;20393;-71
2023/06/27 00:03:51;;;;;;;2.07;1.20;;;16.70;99.90;;;;;;5055196;28;20202;-71
2023/06/27 00:06:21;;;;;;;1.83;1.27;;;16.60;99.90;;;;;;5054592;28;20179;-70
2023/06/27 00:08:49;;;;;;;1.80;1.50;;;16.60;99.90;;;;;;5054996;28;20405;-70
2023/06/27 00:11:16;;;;;;;2.30;1.70;;;16.60;99.90;;;;;;5054932;28;20397;-70
2023/06/27 00:13:42;;;;;;;1.30;1.20;;;16.60;99.90;;;;;;5055266;28;20402;-71
2023/06/27 00:16:12;;;;;;;1.50;1.20;;;16.60;99.90;;;;;;5054826;28;20486;-71
2023/06/27 00:18:39;;;;;;;1.50;1.00;;;16.60;99.90;;;;;;5055036;28;20397;-70
2023/06/27 00:21:05;;;;;;;1.50;1.10;;;16.50;99.90;;;;;;5054756;28;20493;-70
2023/06/27 00:23:33;;;;;;;2.20;1.37;;;16.50;99.90;;;;;;5054633;28;20448;-70
2023/06/27 00:26:00;;;;;;;2.70;1.43;;;16.50;99.90;;;;;;5054296;28;20163;-70
2023/06/27 00:28:25;;;;;;;1.33;1.10;;;16.50;99.90;;;;;;5054875;28;20481;-71
2023/06/27 00:30:51;;;;;;;2.13;1.60;;;16.50;99.90;;;;;;5054777;28;20496;-70
2023/06/27 00:33:16;;;;;;;1.87;1.17;;;16.50;99.90;;;;;;5053042;28;20171;-71
2023/06/27 00:35:42;;;;;;;1.57;1.40;;;16.60;99.90;;;;;;5053767;28;20171;-70
2023/06/27 00:38:07;;;;;;;1.30;1.03;;;16.50;99.90;;;;;;5054648;28;20624;-71
2023/06/27 00:40:33;;;;;;;2.50;1.30;;;16.60;99.90;;;;;;5054812;28;20185;-71
2023/06/27 00:42:58;;;;;;;1.63;1.37;;;16.60;99.90;;;;;;5054544;28;20194;-70
2023/06/27 00:45:24;;;;;;;1.50;1.40;;;16.70;99.90;;;;;;5054058;28;20585;-70
2023/06/27 00:47:51;;;;;;;2.03;1.50;;;16.70;99.90;;;;;;5054230;28;20182;-72
2023/06/27 00:50:19;;;;;;;3.00;1.77;;;16.70;99.90;;;;;;5054253;28;20534;-70
2023/06/27 00:52:45;;;;;;;1.53;1.10;;;16.80;99.90;;;;;;5054405;28;20406;-71
2023/06/27 00:55:11;;;;;;;2.03;1.30;;;16.80;99.90;;;;;;5054303;28;20404;-70
2023/06/27 00:57:37;;;;;;;3.77;1.10;;;16.80;99.90;;;;;;5054707;28;20425;-71
2023/06/27 01:00:05;;;;;;;2.10;1.67;;;16.80;99.90;;;;;;5054446;28;20496;-70
2023/06/27 01:02:30;;;;;;;2.80;1.37;;;16.90;99.90;;;;;;5053894;28;20187;-70
2023/06/27 01:04:56;;;;;;;2.10;1.50;;;16.90;99.90;;;;;;5053903;28;20463;-72
2023/06/27 01:07:29;;;;;;;3.10;1.43;;;17.00;99.90;;;;;;5053748;28;20208;-70
2023/06/27 01:10:03;;;;;;;3.20;1.30;;;17.00;99.90;;;;;;5053886;28;20409;-70
2023/06/27 01:12:44;;;;;;;1.60;1.40;;;17.10;99.90;;;;;;5053780;28;20416;-70
2023/06/27 01:15:09;;;;;;;1.83;1.20;;;17.10;99.90;;;;;;5053844;28;20523;-71
2023/06/27 01:17:36;;;;;;;4.80;1.20;;;17.10;99.90;;;;;;5053765;28;20460;-71
2023/06/27 01:20:02;;;;;;;1.73;1.30;;;17.10;99.90;;;;;;5053884;28;20159;-71
2023/06/27 01:22:36;;;;;;;1.50;1.20;;;17.20;99.90;;;;;;5053780;28;20937;-71
2023/06/27 01:25:03;;;;;;;5.87;1.60;;;17.30;99.90;;;;;;5053398;28;20753;-71
2023/06/27 01:27:28;;;;;;;1.10;1.00;;;17.30;99.90;;;;;;5053420;28;20419;-70
2023/06/27 01:29:55;;;;;;;1.60;1.50;;;17.40;99.90;;;;;;5053705;28;20504;-71
2023/06/27 01:32:32;;;;;;;3.80;1.27;;;17.50;99.90;;;;;;5053630;28;20193;-70
2023/06/27 01:35:07;;;;;;;2.27;1.10;;;17.50;99.90;;;;;;5053174;28;20401;-70
2023/06/27 01:37:41;;;;;;;1.63;1.50;;;17.50;99.90;;;;;;5053165;28;20431;-70
2023/06/27 01:40:14;;;;;;;2.47;1.73;;;17.50;99.90;;;;;;5053519;28;20389;-69
2023/06/27 01:42:42;;;;;;;2.20;2.00;;;17.50;99.90;;;;;;5053233;28;20452;-69
2023/06/27 01:45:09;;;;;;;2.77;2.03;;;17.50;99.90;;;;;;5052868;28;20397;-70
2023/06/27 01:47:37;;;;;;;3.03;1.50;;;17.50;99.90;;;;;;5053036;28;20425;-70
2023/06/27 01:50:03;;;;;;;3.10;1.57;;;17.50;99.90;;;;;;5053062;28;20441;-70
2023/06/27 01:52:29;;;;;;;2.13;1.60;;;17.50;99.90;;;;;;5053020;28;20776;-70
2023/06/27 01:54:54;;;;;;;7.53;1.50;;;17.50;99.90;;;;;;5052851;28;20421;-70
2023/06/27 01:57:20;;;;;;;1.53;1.07;;;17.50;99.90;;;;;;5053068;28;20279;-70
2023/06/27 01:59:45;;;;;;;2.63;1.60;;;17.60;99.90;;;;;;5052906;28;20166;-70
2023/06/27 02:02:11;;;;;;;2.30;1.77;;;17.60;99.90;;;;;;5052841;28;20191;-70
2023/06/27 02:04:37;;;;;;;1.67;1.47;;;17.60;99.90;;;;;;5052809;28;20163;-70
2023/06/27 02:07:02;;;;;;;1.43;1.33;;;17.60;99.90;;;;;;5052005;28;20210;-70
2023/06/27 02:09:28;;;;;;;1.50;1.10;;;17.60;99.90;;;;;;5052633;28;20197;-71
2023/06/27 02:11:53;;;;;;;2.00;1.80;;;17.60;99.90;;;;;;5052978;28;20163;-70
2023/06/27 02:14:19;;;;;;;3.43;1.27;;;17.50;99.90;;;;;;5052718;28;20704;-70
2023/06/27 02:16:44;;;;;;;2.93;1.50;;;17.50;99.90;;;;;;5052448;28;20187;-71
2023/06/27 02:19:10;;;;;;;1.93;1.67;;;17.40;99.90;;;;;;5052569;28;20501;-69
2023/06/27 02:21:35;;;;;;;2.00;1.90;;;17.40;99.90;;;;;;5052593;28;20631;-70
2023/06/27 02:24:01;;;;;;;2.00;1.53;;;17.30;99.90;;;;;;5052682;28;20194;-72
2023/06/27 02:26:26;;;;;;;2.57;1.90;;;17.30;99.90;;;;;;5052210;28;20189;-70
2023/06/27 02:28:52;;;;;;;3.07;1.87;;;17.10;99.90;;;;;;5052573;28;20246;-72
2023/06/27 02:31:19;;;;;;;3.07;1.60;;;17.00;99.90;;;;;;5052983;28;20159;-71
2023/06/27 02:33:45;;;;;;;3.30;1.40;;;16.90;99.90;;;;;;5053832;28;20166;-73
2023/06/27 02:36:10;;;;;;;2.83;1.37;;;16.90;99.90;;;;;;5053800;28;20785;-71
2023/06/27 02:38:36;;;;;;;5.93;3.40;;;16.90;99.90;;;;;;5052308;28;20177;-70
2023/06/27 02:41:01;;;;;;;10.37;4.40;;;16.90;99.90;;;;;;5052240;28;20163;-71
2023/06/27 02:43:27;;;;;;;5.60;2.43;;;16.90;99.90;;;;;;5052117;28;20199;-70
2023/06/27 02:45:52;;;;;;;1.83;1.40;;;16.80;99.90;;;;;;5051834;28;20175;-70
2023/06/27 02:48:18;;;;;;;4.43;2.10;;;16.70;99.90;;;;;;5052098;28;20240;-70
2023/06/27 02:50:46;;;;;;;2.30;1.63;;;16.70;99.90;;;;;;5052072;28;20189;-72
2023/06/27 02:53:11;;;;;;;1.70;1.53;;;16.70;99.90;;;;;;5052300;28;20155;-71
2023/06/27 02:55:38;;;;;;;6.70;3.10;;;16.70;99.90;;;;;;5051924;28;20774;-70
2023/06/27 02:58:03;;;;;;;2.07;1.87;;;16.60;99.90;;;;;;5052001;28;20240;-71
2023/06/27 03:00:29;;;;;;;4.03;2.07;;;16.60;99.90;;;;;;5052227;28;20402;-70
2023/06/27 03:02:54;;;;;;;11.13;7.37;;;16.60;99.90;;;;;;5052107;28;20190;-71
2023/06/27 03:05:20;;;;;;;4.00;1.50;;;16.60;99.90;;;;;;5052055;28;20642;-71
2023/06/27 03:07:45;;;;;;;4.03;2.17;;;16.60;99.90;;;;;;5051910;28;20286;-70
2023/06/27 03:10:11;;;;;;;1.40;1.30;;;16.60;99.90;;;;;;5051934;28;20171;-70
2023/06/27 03:12:36;;;;;;;6.80;3.60;;;16.70;99.90;;;;;;5051917;28;20556;-71
2023/06/27 03:15:03;;;;;;;9.90;6.17;;;16.70;99.90;;;;;;5051543;28;20167;-70
2023/06/27 03:17:30;;;;;;;2.40;1.87;;;16.70;99.90;;;;;;5051638;28;20190;-70
2023/06/27 03:19:55;;;;;;;3.50;2.43;;;16.60;99.90;;;;;;5053257;28;20452;-70
2023/06/27 03:22:21;;;;;;;2.60;1.70;;;16.60;99.90;;;;;;5055801;28;20912;-70
2023/06/27 03:24:47;;;;;;;4.93;2.20;;;16.60;99.90;;;;;;5055807;28;20176;-70
2023/06/27 03:27:14;;;;;;;2.47;1.70;;;16.60;99.90;;;;;;5055643;28;20175;-70
2023/06/27 03:29:39;;;;;;;4.90;1.60;;;16.60;99.90;;;;;;5056001;28;20405;-70
2023/06/27 03:32:05;;;;;;;7.13;1.93;;;16.60;99.90;;;;;;5054538;28;20785;-70
2023/06/27 03:34:31;;;;;;;2.07;1.60;;;16.70;99.90;;;;;;5055665;28;20174;-70
2023/06/27 03:36:56;;;;;;;1.80;1.53;;;16.70;99.90;;;;;;5055342;28;20428;-72
2023/06/27 03:39:22;;;;;;;1.57;1.33;;;16.50;99.90;;;;;;5055840;28;20178;-71
2023/06/27 03:41:47;;;;;;;2.23;1.50;;;16.60;99.90;;;;;;5055841;28;20175;-71
2023/06/27 03:44:13;;;;;;;2.13;1.40;;;16.60;99.90;;;;;;5055652;28;20643;-71
2023/06/27 03:46:39;;;;;;;1.67;1.10;;;16.50;99.90;;;;;;5055291;28;20186;-71
2023/06/27 03:49:04;;;;;;;4.20;2.00;;;16.50;99.90;;;;;;5055532;28;20171;-71
2023/06/27 03:51:30;;;;;;;1.93;1.50;;;16.40;99.90;;;;;;5055774;28;20405;-72
2023/06/27 03:53:55;;;;;;;1.90;1.30;;;16.40;99.90;;;;;;5055550;28;20198;-71
2023/06/27 03:56:21;;;;;;;2.90;2.37;;;16.30;99.90;;;;;;5055210;28;20187;-70
2023/06/27 03:58:46;;;;;;;1.60;1.50;;;16.30;99.90;;;;;;5055425;28;20258;-71
2023/06/27 04:01:12;;;;;;;1.93;1.43;;;16.30;99.90;;;;;;5055240;28;20170;-70
2023/06/27 04:03:37;;;;;;;6.30;1.93;;;16.40;99.90;;;;;;5054904;28;20203;-70
2023/06/27 04:06:03;;;;;;;2.27;1.90;;;16.40;99.90;;;;;;5055152;28;20600;-71
2023/06/27 04:08:29;;;;;;;2.20;1.90;;;16.40;99.90;;;;;;5055140;28;20212;-71
2023/06/27 04:10:54;;;;;;;3.13;1.77;;;16.50;99.90;;;;;;5055061;28;20182;-70
2023/06/27 04:13:20;;;;;;;12.27;6.63;;;16.50;99.90;;;;;;5054957;28;20186;-70
2023/06/27 04:15:45;;;;;;;7.50;4.30;;;16.40;99.90;;;;;;5054534;28;20183;-70
2023/06/27 04:18:11;;;;;;;11.63;7.70;;;16.40;99.90;;;;;;5054819;28;20175;-70
2023/06/27 04:20:36;;;;;;;2.73;2.50;;;16.40;99.90;;;;;;5054949;28;20203;-71
2023/06/27 04:23:03;;;;;;;3.00;1.90;;;16.40;99.90;;;;;;5054824;28;20293;-70
2023/06/27 04:25:33;;;;;;;6.60;2.33;;;16.30;99.90;;;;;;5054514;28;20175;-70
2023/06/27 04:27:58;;;;;;;1.90;1.33;;;16.30;99.90;;;;;;5054631;28;20429;-70
2023/06/27 04:30:24;;;;;;;2.27;2.07;;;16.30;99.90;;;;;;5053958;28;20878;-69
2023/06/27 04:32:50;;;;;;;4.20;2.13;;;16.30;99.90;;;;;;5054621;28;20420;-70
2023/06/27 04:35:17;;;;;;;9.70;8.53;;;16.30;99.90;;;;;;5054257;28;20174;-70
2023/06/27 04:37:43;;;;;;;7.47;4.50;;;16.30;99.90;;;;;;5054413;28;20218;-70
2023/06/27 04:40:11;;;;;;;5.87;2.33;;;16.30;99.90;;;;;;5054577;28;20468;-70
2023/06/27 04:42:37;;;;;;;4.10;2.67;;;16.30;99.90;;;;;;5054378;28;20526;-70
2023/06/27 04:45:03;;;;;;;3.70;2.27;;;16.40;99.90;;;;;;5053998;28;20918;-69
2023/06/27 04:47:29;;;;;;;3.07;1.83;;;16.40;99.90;;;;;;5054215;28;20463;-70
2023/06/27 04:49:54;;;;;;;3.30;1.90;;;16.50;99.90;;;;;;5054200;28;20413;-70
2023/06/27 04:52:20;;;;;;;6.00;2.43;;;16.60;99.90;;;;;;5054225;28;20175;-70
2023/06/27 04:54:49;;;;;;;7.10;1.73;;;16.60;99.90;;;;;;5054147;28;20163;-70
2023/06/27 04:57:15;;;;;;;4.13;2.70;;;16.70;99.90;;;;;;5053794;28;20198;-70
2023/06/27 04:59:42;;;;;;;4.30;2.20;;;16.70;99.90;;;;;;5054083;28;20420;-69
2023/06/27 05:02:07;;;;;;;2.60;2.10;;;16.60;99.90;;;;;;5053995;28;20453;-70
2023/06/27 05:04:33;;;;;;;3.33;1.73;;;16.60;99.90;;;;;;5053986;28;20405;-69
2023/06/27 05:06:59;;;;;;;2.23;1.80;;;16.50;99.90;;;;;;5052103;28;20301;-69
2023/06/27 05:09:25;;;;;;;4.47;2.80;;;16.50;99.90;;;;;;5053932;28;20653;-69
2023/06/27 05:11:50;;;;;;;4.63;3.00;;;16.50;99.90;;;;;;5053910;28;20188;-70
2023/06/27 05:14:16;;;;;;;6.30;2.90;;;16.60;99.90;;;;;;5053771;28;20173;-70
2023/06/27 05:16:41;;;;;;;4.20;2.60;;;16.70;99.90;;;;;;5053352;28;20198;-69
2023/06/27 05:19:07;;;;;;;1.97;1.40;;;16.80;99.90;;;;;;5053774;28;20242;-69
2023/06/27 05:21:33;;;;;;;7.17;2.00;;;17.00;99.90;;;;;;5053636;28;20163;-70
2023/06/27 05:23:58;;;;;;;7.50;2.43;;;17.10;99.90;;;;;;5053509;28;20203;-69
2023/06/27 05:26:24;;;;;;;3.80;2.53;;;17.20;99.90;;;;;;5053262;28;20195;-70
2023/06/27 05:28:50;;;;;;;6.50;2.33;;;17.20;99.90;;;;;;5053493;28;20163;-70
2023/06/27 05:31:16;;;;;;;5.60;2.23;;;17.30;99.90;;;;;;5053455;28;20416;-69
2023/06/27 05:33:41;;;;;;;16.43;2.77;;;17.30;99.90;;;;;;5053504;28;20631;-69
2023/06/27 05:36:07;;;;;;;3.67;2.07;;;17.30;99.90;;;;;;5052992;28;20194;-69
2023/06/27 05:38:32;;;;;;;2.97;1.87;;;17.40;99.90;;;;;;5053412;28;20178;-69
2023/06/27 05:40:58;;;;;;;3.33;1.80;;;17.60;99.90;;;;;;5053267;28;20175;-69
2023/06/27 05:43:23;;;;;;;3.63;1.87;;;17.90;99.90;;;;;;5052222;28;20191;-69
2023/06/27 05:45:49;;;;;;;4.30;1.80;;;18.10;99.90;;;;;;5052771;28;20178;-69
2023/06/27 05:48:15;;;;;;;5.03;2.60;;;18.30;99.90;;;;;;5053153;28;20639;-69
2023/06/27 05:50:40;;;;;;;6.00;2.23;;;18.40;99.90;;;;;;5053167;28;20410;-70
2023/06/27 05:53:06;;;;;;;4.63;1.67;;;18.50;99.90;;;;;;5053101;28;20167;-70
2023/06/27 05:55:32;;;;;;;6.63;2.67;;;18.60;99.90;;;;;;5052861;28;20183;-70
2023/06/27 05:57:57;;;;;;;2.30;1.50;;;18.60;99.90;;;;;;5052858;28;20663;-70
2023/06/27 06:00:23;;;;;;;4.13;2.60;;;18.70;99.90;;;;;;5052932;28;20218;-70
2023/06/27 06:02:48;;;;;;;3.27;2.50;;;18.90;99.90;;;;;;5052888;28;20198;-70
2023/06/27 06:05:17;;;;;;;5.07;2.27;;;19.20;99.90;;;;;;5052573;28;20171;-71
2023/06/27 06:07:44;;;;;;;3.67;2.20;;;19.50;99.90;;;;;;5052689;28;20565;-71
2023/06/27 06:10:10;;;;;;;3.00;2.10;;;20.10;99.90;;;;;;5052736;28;20404;-70
2023/06/27 06:12:37;;;;;;;2.70;2.23;;;20.80;99.90;;;;;;5052633;28;20406;-71
2023/06/27 06:15:02;;;;;;;4.87;2.00;;;21.80;99.90;;;;;;5052378;28;20405;-70
2023/06/27 06:17:28;;;;;;;4.27;1.63;;;22.40;99.90;;;;;;5052423;28;20510;-71
2023/06/27 06:19:54;;;;;;;3.77;2.40;;;23.30;99.90;;;;;;5052584;28;20178;-71
2023/06/27 06:22:19;;;;;;;3.00;1.73;;;23.80;99.90;;;;;;5052512;28;20321;-71
2023/06/27 06:24:45;;;;;;;4.80;2.27;;;24.30;99.90;;;;;;5052446;28;20220;-71
2023/06/27 06:27:10;;;;;;;4.60;1.80;;;25.20;99.90;;;;;;5052052;28;20194;-71
2023/06/27 06:29:36;;;;;;;5.53;1.80;;;26.00;97.00;;;;;;5052338;28;20171;-71
2023/06/27 06:32:02;;;;;;;5.40;1.77;;;26.60;91.30;;;;;;5052396;28;20181;-71
2023/06/27 06:34:27;;;;;;;1.87;1.60;;;27.40;88.60;;;;;;5052385;28;20793;-72
2023/06/27 06:36:53;;;;;;;5.17;2.10;;;28.20;83.90;;;;;;5051892;28;20187;-71
2023/06/27 06:39:18;;;;;;;2.27;1.50;;;29.00;76.10;;;;;;5052365;28;20201;-71
2023/06/27 06:41:44;;;;;;;3.43;2.20;;;29.70;69.60;;;;;;5052235;28;20162;-71
2023/06/27 06:44:09;;;;;;;2.43;1.77;;;30.30;63.30;;;;;;5052029;28;20202;-71
2023/06/27 06:46:37;;;;;;;4.80;1.97;;;30.90;59.30;;;;;;5051813;28;20576;-72
2023/06/27 06:49:03;;;;;;;2.40;2.03;;;31.20;56.10;;;;;;5052106;28;20173;-71
2023/06/27 06:51:28;;;;;;;1.53;1.43;;;31.50;54.50;;;;;;5050803;28;20410;-71
2023/06/27 06:53:54;;;;;;;6.27;2.20;;;31.90;52.70;;;;;;5051832;28;20210;-72
2023/06/27 06:56:20;;;;;;;3.90;2.33;;;32.30;50.90;;;;;;5051631;28;20191;-72
2023/06/27 06:58:45;;;;;;;4.03;1.80;;;32.80;49.70;;;;;;5051979;28;20171;-72
2023/06/27 07:01:11;;;;;;;6.10;2.00;;;33.30;48.40;;;;;;5051961;28;20171;-72
2023/06/27 07:03:36;;;;;;;2.70;2.10;;;33.80;47.60;;;;;;5051864;28;20199;-72
2023/06/27 07:06:02;;;;;;;4.07;2.03;;;34.30;46.10;;;;;;5050302;28;20916;-72
2023/06/27 07:08:28;;;;;;;7.23;2.40;;;34.70;45.20;;;;;;5051849;28;20186;-72
2023/06/27 07:10:53;;;;;;;3.67;2.07;;;35.30;44.10;;;;;;5051798;28;20571;-72
2023/06/27 07:13:19;;;;;;;5.37;2.23;;;35.50;41.80;;;;;;5051889;28;20202;-72
2023/06/27 07:15:44;;;;;;;4.93;1.87;;;35.30;39.70;;;;;;5051506;28;20167;-72
2023/06/27 07:18:10;;;;;;;3.00;2.03;;;35.40;40.70;;;;;;5051868;28;20171;-72
2023/06/27 07:20:35;;;;;;;6.50;2.00;;;35.40;39.60;;;;;;5051787;28;20528;-72
2023/06/27 07:23:01;;;;;;;3.87;2.47;;;35.40;38.80;;;;;;5051729;28;20186;-72
2023/06/27 07:25:28;;;;;;;3.30;1.90;;;35.80;40.10;;;;;;5051500;28;20174;-72
2023/06/27 07:27:54;;;;;;;3.83;2.13;;;36.40;39.40;;;;;;5051625;28;20186;-72
2023/06/27 07:30:19;;;;;;;4.97;2.17;;;37.00;39.20;;;;;;5051761;28;20436;-72
2023/06/27 07:32:45;;;;;;;1.87;1.57;;;37.50;38.10;;;;;;5051779;28;20174;-73
2023/06/27 07:35:10;;;;;;;5.33;2.00;;;38.00;37.10;;;;;;5051401;28;20163;-73
2023/06/27 07:37:37;;;;;;;2.20;1.80;;;38.50;36.30;;;;;;5051615;28;20183;-73
2023/06/27 07:40:02;;;;;;;3.23;1.90;;;38.90;35.50;;;;;;5051609;28;20250;-73
2023/06/27 07:42:28;;;;;;;2.33;1.70;;;39.30;35.30;;;;;;5051576;28;21032;-73
2023/06/27 07:44:54;;;;;;;4.30;2.43;;;39.90;34.80;;;;;;5051438;28;20174;-73
2023/06/27 07:47:19;;;;;;;5.47;3.00;;;40.30;33.60;;;;;;5051477;28;20574;-73
2023/06/27 07:49:45;;;;;;;3.83;2.60;;;40.80;33.00;;;;;;5051574;28;20244;-73
2023/06/27 07:52:11;;;;;;;3.90;1.97;;;41.10;31.50;;;;;;5051521;28;20171;-72
2023/06/27 07:54:36;;;;;;;3.30;2.07;;;41.40;30.80;;;;;;5050274;28;20627;-74
2023/06/27 07:57:02;;;;;;;3.00;1.70;;;41.60;30.30;;;;;;5051074;28;20392;-74
2023/06/27 07:59:28;;;;;;;4.37;1.80;;;41.80;30.20;;;;;;5051531;28;20171;-73
2023/06/27 08:01:54;;;;;;;2.80;1.70;;;42.10;30.00;;;;;;5050325;28;20391;-71
2023/06/27 08:04:20;;;;;;;4.13;2.10;;;42.40;29.80;;;;;;5051361;28;20167;-71
2023/06/27 08:06:46;;;;;;;3.13;2.40;;;42.50;28.90;;;;;;5053273;28;20439;-71
2023/06/27 08:09:11;;;;;;;3.40;2.13;;;42.80;28.70;;;;;;5055035;28;20798;-71
2023/06/27 08:11:37;;;;;;;3.77;2.10;;;43.20;28.70;;;;;;5054934;28;20171;-71
2023/06/27 08:14:03;;;;;;;2.57;2.10;;;43.50;28.30;;;;;;5053843;28;20179;-72
2023/06/27 08:16:28;;;;;;;2.03;1.87;;;43.90;28.60;;;;;;5054509;28;20187;-71
2023/06/27 08:18:54;;;;;;;5.67;2.17;;;44.00;27.60;;;;;;5054320;28;20171;-71
2023/06/27 08:21:19;;;;;;;5.70;2.37;;;43.60;26.50;;;;;;5054720;28;20216;-71
2023/06/27 08:23:45;;;;;;;7.70;1.90;;;42.40;27.10;;;;;;5054567;28;20197;-71
2023/06/27 08:26:15;;;;;;;6.37;2.20;;;41.50;27.80;;;;;;5054296;28;20210;-72
2023/06/27 08:28:41;;;;;;;3.20;2.00;;;40.90;27.50;;;;;;5054759;28;20701;-73
2023/06/27 08:31:07;;;;;;;3.33;1.87;;;41.10;28.10;;;;;;5054480;28;20768;-72
2023/06/27 08:33:32;;;;;;;2.60;1.97;;;40.80;27.40;;;;;;5054621;28;20409;-71
2023/06/27 08:35:58;;;;;;;2.13;1.93;;;40.10;28.00;;;;;;5054125;28;20174;-72
2023/06/27 08:38:24;;;;;;;4.40;2.60;;;40.00;28.60;;;;;;5054403;28;20175;-72
2023/06/27 08:40:54;;;;;;;1.70;1.60;;;40.10;28.50;;;;;;5053944;28;20533;-72
2023/06/27 08:43:20;;;;;;;7.83;2.30;;;40.10;29.10;;;;;;5054257;28;20687;-72
2023/06/27 08:45:47;;;;;;;3.27;2.20;;;39.90;28.90;;;;;;5053968;28;20402;-71
2023/06/27 08:48:15;;;;;;;6.60;3.97;;;38.90;28.80;;;;;;5057101;28;20193;-72
2023/06/27 08:50:42;;;;;;;2.60;2.40;;;37.40;29.60;;;;;;5053130;28;20406;-71
2023/06/27 08:53:10;;;;;;;6.87;3.00;;;36.30;30.40;;;;;;5068740;28;20420;-69
2023/06/27 08:55:39;;;;;;;2.83;1.90;;;35.20;31.90;;;;;;5073872;28;20978;-71
2023/06/27 08:58:10;;;;;;;5.77;2.13;;;34.40;33.20;;;;;;5059996;28;20444;-71
2023/06/27 09:00:35;;;;;;;2.37;1.60;;;33.90;34.00;;;;;;5052901;28;20504;-69
2023/06/27 09:03:03;;;;;;;3.10;1.77;;;33.70;35.20;;;;;;5053810;28;20532;-71
2023/06/27 09:05:31;;;;;;;4.60;1.80;;;33.40;35.20;;;;;;5053690;28;20200;-71
2023/06/27 09:07:57;;;;;;;3.33;1.63;;;33.20;35.40;;;;;;5053779;28;20456;-72
2023/06/27 09:10:23;;;;;;;3.00;1.60;;;33.10;35.80;;;;;;5053844;28;20887;-71
2023/06/27 09:12:52;;;;;;;3.00;1.67;;;32.90;36.30;;;;;;5053972;28;20163;-72
2023/06/27 09:15:17;;;;;;;7.50;2.10;;;33.00;36.90;;;;;;5053473;28;20167;-71
2023/06/27 09:17:43;;;;;;;3.57;2.03;;;33.20;36.60;;;;;;5053505;28;20432;-71
2023/06/27 09:20:09;;;;;;;2.73;1.60;;;33.10;36.50;;;;;;5053631;28;20166;-71
2023/06/27 09:22:37;;;;;;;1.67;1.50;;;32.70;36.40;;;;;;5053613;28;20191;-70
2023/06/27 09:25:09;;;;;;;2.00;1.70;;;32.30;36.60;;;;;;5053049;28;20762;-72
2023/06/27 09:27:36;;;;;;;6.03;2.20;;;32.20;37.40;;;;;;5053477;28;20413;-71
2023/06/27 09:30:02;;;;;;;2.90;2.50;;;32.50;36.30;;;;;;5053552;28;20397;-72
2023/06/27 09:32:28;;;;;;;2.63;1.60;;;33.00;36.80;;;;;;5052250;28;20421;-71
2023/06/27 09:34:54;;;;;;;2.13;1.70;;;32.90;36.00;;;;;;5053266;28;20406;-72
2023/06/27 09:37:20;;;;;;;3.17;2.30;;;32.70;36.50;;;;;;5053283;28;20183;-71
2023/06/27 09:39:45;;;;;;;7.90;1.80;;;32.20;36.40;;;;;;5053251;28;20475;-71
2023/06/27 09:42:11;;;;;;;2.77;1.50;;;31.60;36.60;;;;;;5053260;28;20536;-71
2023/06/27 09:44:36;;;;;;;1.73;1.57;;;31.30;37.30;;;;;;5053356;28;20268;-73
2023/06/27 09:47:03;;;;;;;3.30;2.10;;;31.20;37.80;;;;;;5052796;28;20659;-71
2023/06/27 09:49:31;;;;;;;4.90;2.50;;;31.10;38.00;;;;;;5053241;28;20166;-72
2023/06/27 09:51:57;;;;;;;4.53;2.00;;;30.90;37.80;;;;;;5053102;28;20497;-71
2023/06/27 09:54:22;;;;;;;2.57;1.67;;;30.60;38.20;;;;;;5053055;28;20425;-71
2023/06/27 09:56:52;;;;;;;2.63;1.70;;;30.40;39.30;;;;;;5052625;28;20651;-72
2023/06/27 09:59:20;;;;;;;1.90;1.33;;;30.10;39.50;;;;;;5051739;28;20174;-74
2023/06/27 10:01:49;;;;;;;3.30;1.60;;;30.10;39.70;;;;;;5052783;28;20397;-71
2023/06/27 10:04:14;;;;;;;2.23;1.50;;;29.80;38.50;;;;;;5052841;28;20957;-71
2023/06/27 10:06:41;;;;;;;2.60;1.47;;;29.60;38.90;;;;;;5052356;28;20439;-71
2023/06/27 10:09:07;;;;;;;3.20;1.50;;;29.70;39.50;;;;;;5052839;28;20248;-71
2023/06/27 10:11:35;;;;;;;3.30;1.93;;;29.90;39.40;;;;;;5052737;28;20401;-72
2023/06/27 10:14:00;;;;;;;3.33;2.10;;;30.20;38.90;;;;;;5052707;28;20397;-72
2023/06/27 10:16:29;;;;;;;3.63;1.50;;;30.20;38.70;;;;;;5052721;28;20535;-72
2023/06/27 10:18:55;;;;;;;3.70;1.60;;;30.30;39.80;;;;;;5052589;28;20412;-72
2023/06/27 10:21:24;;;;;;;2.20;1.47;;;31.40;40.00;;;;;;5052613;28;20405;-72
2023/06/27 10:23:52;;;;;;;2.10;1.70;;;33.20;38.00;;;;;;5052460;28;20456;-72
2023/06/27 10:26:19;;;;;;;2.60;1.57;;;35.30;36.80;;;;;;5052168;28;20946;-73
2023/06/27 10:28:51;;;;;;;2.60;1.90;;;36.70;33.60;;;;;;5051997;28;20890;-73
2023/06/27 10:31:42;;;;;;;2.83;1.90;;;37.20;32.20;;;;;;5052369;28;20405;-73
2023/06/27 10:34:09;;;;;;;5.03;2.63;;;37.90;32.80;;;;;;5052379;28;20406;-73
2023/06/27 10:37:01;;;;;;;5.63;2.40;;;38.40;30.90;;;;;;5051683;28;20421;-73
2023/06/27 10:39:32;;;;;;;3.03;2.37;;;38.40;30.70;;;;;;5050893;28;20426;-73
2023/06/27 10:42:01;;;;;;;6.33;1.43;;;37.90;30.90;;;;;;5052170;28;20452;-73
2023/06/27 10:44:28;;;;;;;2.70;2.10;;;37.40;30.90;;;;;;5053346;28;20408;-73
2023/06/27 10:47:15;;;;;;;3.07;1.53;;;37.00;31.30;;;;;;5052673;28;20413;-74
2023/06/27 10:49:45;;;;;;;4.00;2.17;;;37.70;31.50;;;;;;5052634;28;20396;-73
2023/06/27 10:52:19;;;;;;;5.70;2.27;;;38.80;31.80;;;;;;5052269;28;20758;-72
2023/06/27 10:54:44;;;;;;;2.33;1.90;;;39.00;30.10;;;;;;5052055;28;20412;-73
2023/06/27 10:57:16;;;;;;;2.23;2.03;;;38.80;29.60;;;;;;5051723;28;20488;-72
2023/06/27 10:59:45;;;;;;;2.97;2.20;;;38.90;29.40;;;;;;5052059;28;20159;-74
2023/06/27 11:02:11;;;;;;;5.10;2.20;;;38.70;29.10;;;;;;5051818;28;20372;-74
2023/06/27 11:04:39;;;;;;;2.60;1.47;;;38.80;29.50;;;;;;5051928;28;20403;-74
2023/06/27 11:07:12;;;;;;;3.07;1.60;;;39.40;29.60;;;;;;5051388;28;20454;-74
2023/06/27 11:09:37;;;;;;;1.63;1.53;;;39.50;28.40;;;;;;5051852;28;20429;-74
2023/06/27 11:12:17;;;;;;;1.63;1.53;;;40.20;28.30;;;;;;5051871;28;20434;-73
2023/06/27 11:14:44;;;;;;;2.43;2.13;;;41.40;28.40;;;;;;5051830;28;20158;-74
2023/06/27 11:17:14;;;;;;;2.10;1.90;;;42.80;27.40;;;;;;5051810;28;20407;-75
2023/06/27 11:19:42;;;;;;;6.93;1.93;;;43.30;26.20;;;;;;5051913;28;20426;-74
2023/06/27 11:22:08;;;;;;;2.83;2.23;;;44.40;25.30;;;;;;5051657;28;20380;-74
2023/06/27 11:24:34;;;;;;;3.27;2.00;;;44.50;24.10;;;;;;5051703;28;20438;-74
2023/06/27 11:27:01;;;;;;;3.10;1.60;;;43.50;23.50;;;;;;5051510;28;20186;-72
2023/06/27 11:29:30;;;;;;;3.43;2.07;;;41.90;23.10;;;;;;5051679;28;20163;-72
2023/06/27 11:31:55;;;;;;;3.43;1.70;;;41.00;25.50;;;;;;5050393;28;20410;-73
2023/06/27 11:34:22;;;;;;;2.17;1.90;;;40.80;26.40;;;;;;5051615;28;20413;-74
2023/06/27 11:36:48;;;;;;;3.07;2.00;;;41.70;26.40;;;;;;5051299;28;20225;-75
2023/06/27 11:39:14;;;;;;;1.70;1.60;;;42.60;25.50;;;;;;5051631;28;20491;-74
2023/06/27 11:41:40;;;;;;;4.50;1.93;;;43.50;25.40;;;;;;5053912;28;20178;-74
2023/06/27 11:44:10;;;;;;;2.20;1.73;;;44.20;24.40;;;;;;5055355;28;20423;-75
2023/06/27 11:46:47;;;;;;;2.50;2.00;;;43.70;24.30;;;;;;5055181;28;20904;-73
2023/06/27 11:49:12;;;;;;;2.93;2.23;;;44.20;24.30;;;;;;5055475;28;20376;-73
2023/06/27 11:51:39;;;;;;;1.77;1.67;;;44.00;23.90;;;;;;5053820;28;20466;-73
2023/06/27 11:54:07;;;;;;;3.00;1.67;;;43.10;24.20;;;;;;5055316;28;20166;-74
2023/06/27 11:56:33;;;;;;;2.50;2.30;;;42.30;24.30;;;;;;5054993;28;20436;-74
2023/06/27 11:58:59;;;;;;;2.80;2.27;;;41.70;24.70;;;;;;5055241;28;20379;-74
2023/06/27 12:01:26;;;;;;;3.30;1.90;;;41.30;24.40;;;;;;5055185;28;20458;-74
2023/06/27 12:03:52;;;;;;;3.27;2.20;;;40.90;25.00;;;;;;5054874;28;20816;-73
2023/06/27 12:06:26;;;;;;;2.37;1.67;;;40.20;25.50;;;;;;5054761;28;20407;-74
2023/06/27 12:08:52;;;;;;;1.63;1.50;;;39.50;26.10;;;;;;5055042;28;20167;-74
2023/06/27 12:11:17;;;;;;;3.63;1.60;;;39.20;26.60;;;;;;5055044;28;20392;-73
2023/06/27 12:13:43;;;;;;;1.77;1.67;;;39.50;26.70;;;;;;5054949;28;20459;-73
2023/06/27 12:16:27;;;;;;;2.17;1.90;;;39.50;26.10;;;;;;5054629;28;20272;-74
2023/06/27 12:19:01;;;;;;;4.03;1.70;;;39.00;25.60;;;;;;5056273;28;20248;-73
2023/06/27 12:21:26;;;;;;;2.33;1.80;;;38.90;26.40;;;;;;5055203;28;20528;-72
2023/06/27 12:23:53;;;;;;;4.63;1.87;;;38.90;26.00;;;;;;5054776;28;20567;-73
2023/06/27 12:26:18;;;;;;;2.63;1.57;;;39.20;26.80;;;;;;5054419;28;20194;-73
2023/06/27 12:29:10;;;;;;;3.50;1.80;;;39.70;26.70;;;;;;5054797;28;20402;-73
2023/06/27 12:31:36;;;;;;;3.17;1.77;;;39.40;26.40;;;;;;5054272;28;20206;-72
2023/06/27 12:34:03;;;;;;;3.20;2.10;;;39.10;26.70;;;;;;5054644;28;20759;-73
2023/06/27 12:36:30;;;;;;;2.47;2.00;;;39.10;26.80;;;;;;5054182;28;20436;-74
2023/06/27 12:38:56;;;;;;;1.40;1.30;;;40.00;26.90;;;;;;5054602;28;20758;-74
2023/06/27 12:41:25;;;;;;;3.70;2.43;;;41.10;26.20;;;;;;5055259;28;20412;-75
2023/06/27 12:43:51;;;;;;;3.30;1.70;;;41.50;25.80;;;;;;5054971;28;20194;-74